< < Back
Terminal Aerodrome Forecast


Current Version              Previous Versions:   1  2  3  4  5  6  7  8  9  

Terminal Aerodrome Forecast

887
FTUS42 KTAE 121001 AAA
TAFTLH
TAF AMD
KTLH 121001Z 1210/1306 23003KT 3SM BR BKN015
      TEMPO 1210/1214 1/2SM FG VV006
     FM121600 26012G22KT P6SM SCT250=



Latest METAR

306
SAUS80 KWBC 130200
MTRTLH
METAR KTLH 130153Z 26007KT 10SM CLR 17/13 A3015 RMK AO2 SLP209
T01670128


USA.gov is the U.S. government's official web portal to all federal, state and local government web resources and services.